Surface/Precipitation History
02/21/2019 09:41  to  2/22/2019 09:41
Change End Date:
Date/Time
(MST)
Sf
Temp Chem Water Layer Surface Precipitation
Sfc Pvt Sub Frz Factor Pct Dpth DpthThk IcePct Cond Salin FI Type Intens Accum Rate
02/22/2019 09:28 Dry 10.2F - 21F - - - - - - 20 mhos 8001 - None None - -
02/22/2019 09:28 Dry 10.2F - 21F - - - - - - 20 mhos 8001 - None None - -
02/22/2019 09:18 Dry 9.0F - 21F - - - - - - 28 mhos 10076 - None None - -
02/22/2019 09:13 Dry 7.9F - 21F - - - - - - 23 mhos 9539 - None None - -
02/22/2019 09:08 Dry 7.2F - 21F - - - - - - 19 mhos 9057 - None None - -
02/22/2019 08:58 Dry 5.0F - 21F - - - - - - 46 mhos 14385 - None None - -
02/22/2019 08:58 Dry 5.0F - 21F - - - - - - 46 mhos 14385 - None None - -
02/22/2019 08:47 Dry 3.4F - 22F - - - - - - 27 mhos 12305 - None None - -
02/22/2019 08:43 Dry 2.5F - 22F - - - - - - 41 mhos 14886 - None None - -
02/22/2019 08:37 Dry 2.5F - 22F - - - - - - 34 mhos 13956 - None None - -
02/22/2019 08:28 Dry 1.9F - 22F - - - - - - 44 mhos 15000 - None None - -
02/22/2019 08:27 Dry 1.8F - 22F - - - - - - 43 mhos 15000 - None None - -
02/22/2019 08:17 Dry 0.7F - 22F - - - - - - 38 mhos 15000 - None None - -
02/22/2019 08:13 Dry 0.5F - 22F - - - - - - 21 mhos 12306 - None None - -
02/22/2019 08:07 Dry -0.4F - 22F - - - - - - 11 mhos 9244 - None None - -
Date/Time
(MST)
Sf
Temp Chem Water Layer Surface Precipitation
Sfc Pvt Sub Frz Factor Pct Dpth DpthThk IcePct Cond Salin FI Type Intens Accum Rate
02/22/2019 07:58 Dry -1.1F - 22F - - - - - - 12 mhos 10053 - None None - -
02/22/2019 07:57 Dry -1.1F - 22F - - - - - - 12 mhos 9904 - None None - -
02/22/2019 07:47 Dry -1.8F - 22F - - - - - - 11 mhos 9938 - None None - -
02/22/2019 07:42 Ice Watch -2.2F - 22F - 45 - - - - 13 mhos 11070 - None None - -
02/22/2019 07:37 Ice Watch -2.2F - 22F - 45 - - - - 10 mhos 9667 - None None - -
02/22/2019 07:28 Dry -2.4F - 22F - - - - - - 11 mhos 10045 - None None - -
02/22/2019 07:27 Dry -2.2F - 22F - - - - - - 12 mhos 10674 - None None - -
02/22/2019 07:17 Dry -2.2F - 22F - - - - - - 12 mhos 10481 - None None - -
02/22/2019 07:13 Dry -2.0F - 22F - - - - - - 14 mhos 11100 - None None - -
02/22/2019 07:07 Ice Watch -2.0F - 22F - 45 - - - - 12 mhos 10546 - None None - -
02/22/2019 06:57 Dry -2.2F - 22F - - - - - - 5 mhos 6018 - None None - -
02/22/2019 06:57 Dry -2.2F - 22F - - - - - - 5 mhos 6018 - None None - -
02/22/2019 06:47 Dry -2.0F - 22F - - - - - - 9 mhos 9194 - None None - -
02/22/2019 06:42 Dry -1.8F - 23F - - - - - - 9 mhos 8878 - None None - -
02/22/2019 06:37 Dry -1.8F - 23F - - - - - - 13 mhos 10800 - None None - -
Date/Time
(MST)
Sf
Temp Chem Water Layer Surface Precipitation
Sfc Pvt Sub Frz Factor Pct Dpth DpthThk IcePct Cond Salin FI Type Intens Accum Rate
02/22/2019 06:28 Dry -1.7F - 23F - - - - - - 10 mhos 9332 - None None - -
02/22/2019 06:27 Dry -1.5F - 23F - - - - - - 11 mhos 9795 - None None - -
02/22/2019 06:17 Dry -1.3F - 23F - - - - - - 13 mhos 10460 - None None - -
02/22/2019 06:13 Dry -1.1F - 23F - - - - - - 11 mhos 9595 - None None - -
02/22/2019 06:07 Dry -0.9F - 23F - - - - - - 16 mhos 11478 - None None - -
02/22/2019 05:57 Ice Watch -0.8F - 23F - 50 - - - - 13 mhos 10130 - None None - -
02/22/2019 05:47 Dry -0.6F - 23F - - - - - - 13 mhos 10278 - None None - -
02/22/2019 05:43 Dry -0.4F - 23F - - - - - - 12 mhos 9910 - None None - -
02/22/2019 05:37 Dry -0.4F - 23F - - - - - - 12 mhos 9910 - None None - -
02/22/2019 05:28 Dry -0.4F - 23F - - - - - - 10 mhos 9081 - None None - -
02/22/2019 05:26 Dry -0.4F - 23F - - - - - - 10 mhos 9005 - None None - -
02/22/2019 05:16 Dry -0.2F - 23F - - - - - - 14 mhos 10352 - None None - -
02/22/2019 05:13 Dry -0.2F - 24F - - - - - - 13 mhos 10198 - None None - -
02/22/2019 05:06 Ice Watch -0.2F - 24F - 35 - - - - 11 mhos 8997 - None None - -
02/22/2019 04:58 Ice Watch 0.0F - 24F - 40 - - - - 10 mhos 8726 - None None - -
Date/Time
(MST)
Sf
Temp Chem Water Layer Surface Precipitation
Sfc Pvt Sub Frz Factor Pct Dpth DpthThk IcePct Cond Salin FI Type Intens Accum Rate
02/22/2019 04:56 Ice Watch 0.0F - 24F - 40 - - - - 9 mhos 8438 - None None - -
02/22/2019 04:46 Ice Watch 0.0F - 24F - 45 - - - - 14 mhos 10298 - None None - -
02/22/2019 04:43 Ice Watch 0.0F - 24F - 35 - - - - 10 mhos 8807 - None None - -
02/22/2019 04:36 Dry 0.1F - 24F - - - - - - 11 mhos 9101 - None None - -
02/22/2019 04:28 Dry 0.3F - 24F - - - - - - 10 mhos 8626 - None None - -
02/22/2019 04:26 Dry 0.3F - 24F - - - - - - 10 mhos 8511 - None None - -
02/22/2019 04:16 Dry 0.3F - 24F - - - - - - 12 mhos 9339 - None None - -
02/22/2019 04:13 Dry 0.5F - 24F - - - - - - 17 mhos 11074 - None None - -
02/22/2019 04:06 Dry 0.7F - 24F - - - - - - 12 mhos 9364 - None None - -
02/22/2019 03:58 Dry 1.2F - 24F - - - - - - 16 mhos 10400 - None None - -
02/22/2019 03:56 Dry 1.2F - 24F - - - - - - 13 mhos 9401 - None None - -
02/22/2019 03:46 Ice Watch 1.0F - 24F - 40 - - - - 9 mhos 7855 - None None - -
02/22/2019 03:44 Ice Watch 1.0F - 24F - 35 - - - - 9 mhos 7723 - None None - -
02/22/2019 03:36 Dry 1.0F - 24F - - - - - - 10 mhos 8169 - None None - -
02/22/2019 03:28 Dry 1.2F - 24F - - - - - - 11 mhos 8658 - None None - -
Date/Time
(MST)
Sf
Temp Chem Water Layer Surface Precipitation
Sfc Pvt Sub Frz Factor Pct Dpth DpthThk IcePct Cond Salin FI Type Intens Accum Rate
02/22/2019 03:26 Dry 1.2F - 24F - - - - - - 11 mhos 8886 - None None - -
02/22/2019 03:16 Dry 1.6F - 24F - - - - - - 12 mhos 9024 - None None - -
02/22/2019 03:13 Dry 1.6F - 24F - - - - - - 11 mhos 8679 - None None - -
02/22/2019 03:06 Dry 1.8F - 25F - - - - - - 12 mhos 8990 - None None - -
02/22/2019 03:00 Dry 1.9F - 25F - - - - - - 12 mhos 8839 - None None - -
02/22/2019 02:56 Ice Watch 1.9F - 25F - 35 - - - - 8 mhos 7094 - None None - -
02/22/2019 02:50 Ice Watch 1.8F - 25F - 35 - - - - 8 mhos 6904 - None None - -
02/22/2019 02:46 Ice Watch 1.9F - 25F - 40 - - - - 9 mhos 7303 - None None - -
02/22/2019 02:36 Dry 2.3F - 25F - - - - - - 10 mhos 7806 - None None - -
02/22/2019 02:28 Dry 2.5F - 25F - - - - - - 9 mhos 7240 - None None - -
02/22/2019 02:26 Dry 2.5F - 25F - - - - - - 11 mhos 8159 - None None - -
02/22/2019 02:16 Dry 2.7F - 25F - - - - - - 11 mhos 8260 - None None - -
02/22/2019 02:13 Dry 2.7F - 25F - - - - - - 11 mhos 8053 - None None - -
02/22/2019 02:06 Ice Watch 2.8F - 25F - 50 - - - - 11 mhos 8115 - None None - -
02/22/2019 01:58 Ice Watch 3.0F - 25F - 40 - - - - 12 mhos 8344 - None None - -
Date/Time
(MST)
Sf
Temp Chem Water Layer Surface Precipitation
Sfc Pvt Sub Frz Factor Pct Dpth DpthThk IcePct Cond Salin FI Type Intens Accum Rate
02/22/2019 01:56 Ice Watch 3.0F - 25F - 45 - - - - 15 mhos 9346 - None None - -
02/22/2019 01:46 Dry 3.4F - 25F - - - - - - 13 mhos 8610 - None None - -
02/22/2019 01:43 Dry 3.4F - 25F - - - - - - 22 mhos 11303 - None None - -
02/22/2019 01:36 Ice Watch 3.7F - 25F - 55 - - - - 9 mhos 6839 - None None - -
02/22/2019 01:28 Dry 3.7F - 25F - - - - - - 12 mhos 8064 - None None - -
02/22/2019 01:26 Ice Watch 3.7F - 25F - 50 - - - - 10 mhos 7415 - None None - -
02/22/2019 01:15 Dry 3.9F - 25F - - - - - - 11 mhos 7571 - None None - -
02/22/2019 01:13 Dry 4.1F - 26F - - - - - - 13 mhos 8289 - None None - -
02/22/2019 01:05 Ice Watch 4.3F - 26F - 65 - - - - 14 mhos 8781 - None None - -
02/22/2019 00:58 Dry 4.5F - 26F - - - - - - 23 mhos 11045 - None None - -
02/22/2019 00:55 Dry 4.5F - 26F - - - - - - 23 mhos 10975 - None None - -
02/22/2019 00:45 Ice Watch 4.6F - 26F - 90 - - - - 30 mhos 12267 - None None - -
02/22/2019 00:43 Dry 4.5F - 26F - - - - - - 42 mhos 14162 - None None - -
02/22/2019 00:35 Dry 5.0F - 26F - - - - - - 37 mhos 13165 - None None - -
02/22/2019 00:28 Dry 5.2F - 26F - - - - - - 47 mhos 15000 - None None - -
Date/Time
(MST)
Sf
Temp Chem Water Layer Surface Precipitation
Sfc Pvt Sub Frz Factor Pct Dpth DpthThk IcePct Cond Salin FI Type Intens Accum Rate
02/22/2019 00:25 Dry 5.4F - 26F - - - - - - 48 mhos 15000 - None None - -
02/22/2019 00:15 Ice Watch 5.4F - 26F - 95 - - - - 40 mhos 13468 - None None - -
02/22/2019 00:13 Ice Watch 5.4F - 26F - 75 - - - - 17 mhos 9244 - None None - -
02/22/2019 00:05 Ice Watch 5.2F - 26F - 60 - - - - 13 mhos 7767 - None None - -
02/21/2019 23:58 Ice Watch 5.4F - 26F - 75 - - - - 16 mhos 8876 - None None - -
02/21/2019 23:55 Dry 5.5F - 26F - - - - - - 18 mhos 9431 - None None - -
02/21/2019 23:45 Ice Watch 5.9F - 26F - 75 - - - - 20 mhos 9670 - None None - -
02/21/2019 23:43 Ice Watch 6.1F - 26F - 75 - - - - 23 mhos 10225 - None None - -
02/21/2019 23:35 Ice Watch 6.4F - 26F - 85 - - - - 25 mhos 10694 - None None - -
02/21/2019 23:28 Dry 6.4F - 26F - - - - - - 44 mhos 13500 - None None - -
02/21/2019 23:25 Dry 6.4F - 26F - - - - - - 44 mhos 13430 - None None - -
02/21/2019 23:15 Ice Watch 7.0F - 26F - 95 - - - - 16 mhos 8304 - None None - -
02/21/2019 23:13 Ice Watch 7.0F - 26F - 75 - - - - 18 mhos 8647 - None None - -
02/21/2019 23:05 Ice Watch 7.2F - 26F - 85 - - - - 25 mhos 10357 - None None - -
02/21/2019 22:58 Ice Watch 7.3F - 26F - 95 - - - - 35 mhos 11890 - None None - -
Date/Time
(MST)
Sf
Temp Chem Water Layer Surface Precipitation
Sfc Pvt Sub Frz Factor Pct Dpth DpthThk IcePct Cond Salin FI Type Intens Accum Rate
02/21/2019 22:55 Dry 7.3F - 26F - - - - - - 27 mhos 10568 - None None - -
02/21/2019 22:45 Ice Watch 7.3F - 26F - 95 - - - - 40 mhos 12606 - None None - -
02/21/2019 22:43 Dry 7.5F - 26F - - - - - - 45 mhos 13070 - None None - -
02/21/2019 22:35 Ice Watch 8.1F - 26F - 95 - - - - 42 mhos 12601 - None None - -
02/21/2019 22:28 Dry 8.1F - 26F - - - - - - 46 mhos 13014 - None None - -
02/21/2019 22:25 Dry 8.1F - 26F - - - - - - 45 mhos 12978 - None None - -
02/21/2019 22:15 Dry 8.2F - 26F - - - - - - 0 mhos 0 - None None - -
02/21/2019 22:13 Dry 8.2F - 26F - - - - - - 0 mhos 0 - None None - -
02/21/2019 22:05 Ice Watch 8.4F - 26F - 95 - - - - 42 mhos 12338 - None None - -
02/21/2019 21:58 Ice Watch 9.0F - 26F - 95 - - - - 44 mhos 12408 - None None - -
02/21/2019 21:55 Ice Watch 9.0F - 26F - 95 - - - - 42 mhos 12110 - None None - -
02/21/2019 21:44 Ice Watch 9.3F - 26F - 95 - - - - 44 mhos 12243 - None None - -
02/21/2019 21:43 Dry 9.3F - 26F - - - - - - 43 mhos 12143 - None None - -
02/21/2019 21:34 Ice Watch 9.7F - 26F - 95 - - - - 39 mhos 11414 - None None - -
02/21/2019 21:28 Dry 10.0F - 26F - - - - - - 0 mhos 0 - None None - -
Date/Time
(MST)
Sf
Temp Chem Water Layer Surface Precipitation
Sfc Pvt Sub Frz Factor Pct Dpth DpthThk IcePct Cond Salin FI Type Intens Accum Rate
02/21/2019 21:24 Ice Watch 10.0F - 26F - 65 - - - - 16 mhos 7096 - None None - -
02/21/2019 21:14 Ice Watch 10.4F - 26F - 95 - - - - 44 mhos 11721 - None None - -
02/21/2019 21:13 Ice Watch 10.6F - 26F - 95 - - - - 40 mhos 11176 - None None - -
02/21/2019 21:04 Dry 10.9F - 26F - - - - - - 46 mhos 11766 - None None - -
02/21/2019 20:58 Ice Watch 11.1F - 26F - 95 - - - - 43 mhos 11327 - None None - -
02/21/2019 20:54 Dry 11.3F - 26F - - - - - - 37 mhos 10541 - None None - -
02/21/2019 20:44 Ice Watch 11.7F - 26F - 95 - - - - 36 mhos 10239 - None None - -
02/21/2019 20:43 Ice Watch 11.7F - 26F - 95 - - - - 35 mhos 10079 - None None - -
02/21/2019 20:34 Dry 12.2F - 26F - - - - - - 42 mhos 10780 - None None - -
02/21/2019 20:28 Ice Watch 12.6F - 26F - 95 - - - - 44 mhos 10847 - None None - -
02/21/2019 20:24 Ice Watch 12.7F - 26F - 95 - - - - 46 mhos 11022 - None None - -
02/21/2019 20:14 Ice Watch 12.9F - 26F - 65 - - - - 17 mhos 6107 - None None - -
02/21/2019 20:13 Ice Watch 13.1F - 26F - 70 - - - - 43 mhos 10558 - None None - -
02/21/2019 20:04 Dry 13.5F - 26F - - - - - - 46 mhos 10700 - None None - -
02/21/2019 19:58 Dry 13.6F - 26F - - - - - - 46 mhos 10635 - None None - -
Date/Time
(MST)
Sf
Temp Chem Water Layer Surface Precipitation
Sfc Pvt Sub Frz Factor Pct Dpth DpthThk IcePct Cond Salin FI Type Intens Accum Rate
02/21/2019 19:54 Dry 13.6F - 26F - - - - - - 47 mhos 10706 - None None - -
02/21/2019 19:44 Dry 14.2F - 26F - - - - - - 46 mhos 10379 - None None - -
02/21/2019 19:43 Dry 14.4F - 26F - - - - - - 47 mhos 10456 - None None - -
02/21/2019 19:34 Dry 15.1F - 26F - - - - - - 38 mhos 9101 - None None - -
02/21/2019 19:28 Dry 15.4F - 26F - - - - - - 46 mhos 9869 - None None - -
02/21/2019 19:24 Dry 15.8F - 26F - - - - - - 15 mhos 4835 - None None - -
02/21/2019 19:14 Dry 16.5F - 26F - - - - - - 18 mhos 5291 - None None - -
02/21/2019 19:13 Dry 16.5F - 26F - - - - - - 18 mhos 5291 - None None - -
02/21/2019 19:04 Dry 17.1F - 26F - - - - - - 44 mhos 9008 - None None - -
02/21/2019 18:58 Dry 17.2F - 26F - - - - - - 46 mhos 9080 - None None - -
02/21/2019 18:54 Ice Watch 17.8F - 26F - 95 - - - - 20 mhos 5160 - None None - -
02/21/2019 18:43 Ice Watch 18.3F - 26F - 95 - - - - 34 mhos 7239 - None None - -
02/21/2019 18:42 Ice Watch 18.3F - 26F - 90 - - - - 34 mhos 7285 - None None - -
02/21/2019 18:33 Ice Watch 19.0F - 26F - 95 - - - - 36 mhos 7316 - None None - -
02/21/2019 18:27 Dry 19.4F - 26F - - - - - - 45 mhos 8121 - None None - -
Date/Time
(MST)
Sf
Temp Chem Water Layer Surface Precipitation
Sfc Pvt Sub Frz Factor Pct Dpth DpthThk IcePct Cond Salin FI Type Intens Accum Rate
02/21/2019 18:23 Ice Watch 19.8F - 26F - 85 - - - - 31 mhos 6321 - None None - -
02/21/2019 18:13 Ice Watch 20.5F - 26F - 95 - - - - 45 mhos 7731 - None None - -
02/21/2019 18:03 Dry 21.4F - 26F - - - - - - 45 mhos 7434 - None None - -
02/21/2019 17:58 Ice Watch 21.6F - 26F - 80 - - - - 18 mhos 3753 - None None - -
02/21/2019 17:53 Ice Watch 21.9F - 26F - 85 - - - - 22 mhos 4296 - None None - -
02/21/2019 17:43 Ice Watch 22.8F - 25F - 20 - - - - 6 mhos 1252 - None None - -
02/21/2019 17:43 Ice Watch 22.8F - 25F - 20 - - - - 6 mhos 1252 - None None - -
02/21/2019 17:33 Ice Watch 23.5F - 25F - 20 - - - - 6 mhos 1147 - None None - -
02/21/2019 17:28 Ice Watch 24.3F - 25F - 20 - - - - 7 mhos 1256 - None None - -
02/21/2019 17:23 Ice Watch 24.8F - 25F - 30 - - - - 7 mhos 1198 - None None - -
02/21/2019 17:13 Ice Watch 26.1F - 25F - 55 - - - - 14 mhos 2092 - None None - -
02/21/2019 17:13 Dry 26.4F - 25F - - - - - - 15 mhos 2237 - None None - -
02/21/2019 17:03 Ice Watch 28.2F - 25F - 80 - - - - 27 mhos 3338 - None None - -
02/21/2019 16:58 Ice Watch 28.6F - 25F - 20 - - - - 7 mhos 855 - None None - -
02/21/2019 16:53 Dry 29.5F - 25F - - - - - - 8 mhos 960 - None None - -
Date/Time
(MST)
Sf
Temp Chem Water Layer Surface Precipitation
Sfc Pvt Sub Frz Factor Pct Dpth DpthThk IcePct Cond Salin FI Type Intens Accum Rate
02/21/2019 16:43 Ice Watch 30.6F - 25F - 20 - - - - 6 mhos 707 - None None - -
02/21/2019 16:43 Ice Watch 30.6F - 25F - 20 - - - - 6 mhos 707 - None None - -
02/21/2019 16:33 Ice Watch 31.8F - 25F - 25 - - - - 7 mhos 717 - None None - -
02/21/2019 16:28 Trace Moisture 32.5F - 25F - 35 - - - - 8 mhos 820 - None None - -
02/21/2019 16:23 Trace Moisture 33.1F - 25F - 35 - - - - 8 mhos 761 - None None - -
02/21/2019 16:14 Trace Moisture 34.2F - 25F - 30 - - - - 8 mhos 788 - None None - -
02/21/2019 16:13 Trace Moisture 34.0F - 25F - 40 - - - - 8 mhos 837 - None None - -
02/21/2019 16:03 Dry 34.9F - 25F - - - - - - 11 mhos 1044 - None None - -
02/21/2019 15:58 Trace Moisture 35.8F - 25F - 35 - - - - 9 mhos 856 - None None - -
02/21/2019 15:53 Trace Moisture 36.3F - 25F - 5 - - - - 0 mhos 0 - None None - -
02/21/2019 15:43 Trace Moisture 36.9F - 25F - 5 - - - - 0 mhos 0 - None None - -
02/21/2019 15:43 Trace Moisture 37.2F - 25F - 5 - - - - 0 mhos 0 - None None - -
02/21/2019 15:33 Dry 38.1F - 25F - - - - - - 7 mhos 633 - None None - -
02/21/2019 15:28 Trace Moisture 38.7F - 25F - 10 - - - - 6 mhos 551 - None None - -
02/21/2019 15:22 Trace Moisture 39.0F - 24F - 10 - - - - 5 mhos 504 - None None - -
Date/Time
(MST)
Sf
Temp Chem Water Layer Surface Precipitation
Sfc Pvt Sub Frz Factor Pct Dpth DpthThk IcePct Cond Salin FI Type Intens Accum Rate
02/21/2019 15:13 Dry 39.4F - 24F - - - - - - 6 mhos 527 - None None - -
02/21/2019 15:12 Dry 39.4F - 24F - - - - - - 5 mhos 486 - None None - -
02/21/2019 15:02 Trace Moisture 39.9F - 24F - 5 - - - - 5 mhos 426 - None None - -
02/21/2019 14:58 Trace Moisture 40.1F - 24F - 15 - - - - 5 mhos 479 - None None - -
02/21/2019 14:52 Trace Moisture 40.3F - 24F - 10 - - - - 5 mhos 480 - None None - -
02/21/2019 14:43 Dry 40.3F - 24F - - - - - - 5 mhos 472 - None None - -
02/21/2019 14:42 Dry 40.6F - 24F - - - - - - 6 mhos 531 - None None - -
02/21/2019 14:32 Dry 40.1F - 24F - - - - - - 6 mhos 536 - None None - -
02/21/2019 14:29 Trace Moisture 39.9F - 24F - 15 - - - - 5 mhos 478 - None None - -
02/21/2019 14:22 Dry 40.1F - 24F - - - - - - 5 mhos 445 - None None - -
02/21/2019 14:13 Dry 40.1F - 24F - - - - - - 5 mhos 439 - None None - -
02/21/2019 14:12 Trace Moisture 40.3F - 24F - 10 - - - - 5 mhos 447 - None None - -
02/21/2019 14:02 Trace Moisture 39.9F - 24F - 5 - - - - 5 mhos 412 - None None - -
02/21/2019 13:58 Dry 39.9F - 24F - - - - - - 6 mhos 527 - None None - -
02/21/2019 13:52 Trace Moisture 40.1F - 24F - 10 - - - - 5 mhos 488 - None None - -
Date/Time
(MST)
Sf
Temp Chem Water Layer Surface Precipitation
Sfc Pvt Sub Frz Factor Pct Dpth DpthThk IcePct Cond Salin FI Type Intens Accum Rate
02/21/2019 13:43 Dry 40.1F - 24F - - - - - - 7 mhos 620 - None None - -
02/21/2019 13:42 Dry 39.9F - 24F - - - - - - 6 mhos 562 - None None - -
02/21/2019 13:32 Trace Moisture 39.7F - 24F - 5 - - - - 0 mhos 0 - None None - -
02/21/2019 13:28 Trace Moisture 39.4F - 24F - 5 - - - - 0 mhos 0 - None None - -
02/21/2019 13:22 Dry 39.2F - 24F - - - - - - 0 mhos 0 - None None - -
02/21/2019 13:13 Trace Moisture 39.2F - 24F - 5 - - - - 0 mhos 0 - None None - -
02/21/2019 13:12 Trace Moisture 38.7F - 24F - 5 - - - - 0 mhos 0 - None None - -
02/21/2019 13:02 Trace Moisture 38.7F - 24F - 10 - - - - 5 mhos 425 - None None - -
02/21/2019 12:58 Trace Moisture 38.1F - 24F - 10 - - - - 5 mhos 458 - None None - -
02/21/2019 12:52 Trace Moisture 37.6F - 24F - 15 - - - - 5 mhos 479 - None None - -
02/21/2019 12:43 Trace Moisture 37.6F - 24F - 15 - - - - 5 mhos 501 - None None - -
02/21/2019 12:42 Trace Moisture 37.6F - 24F - 15 - - - - 5 mhos 515 - None None - -
02/21/2019 12:32 Trace Moisture 37.6F - 24F - 5 - - - - 0 mhos 0 - None None - -
02/21/2019 12:28 Trace Moisture 37.6F - 24F - 10 - - - - 6 mhos 525 - None None - -
02/21/2019 12:22 Trace Moisture 37.2F - 24F - 10 - - - - 5 mhos 463 - None None - -
Date/Time
(MST)
Sf
Temp Chem Water Layer Surface Precipitation
Sfc Pvt Sub Frz Factor Pct Dpth DpthThk IcePct Cond Salin FI Type Intens Accum Rate
02/21/2019 12:13 Trace Moisture 36.1F - 24F - 10 - - - - 5 mhos 478 - None None - -
02/21/2019 12:12 Trace Moisture 36.0F - 24F - 10 - - - - 5 mhos 464 - None None - -
02/21/2019 12:01 Trace Moisture 35.1F - 24F - 15 - - - - 6 mhos 563 - None None - -
02/21/2019 11:58 Trace Moisture 34.9F - 24F - 10 - - - - 5 mhos 524 - None None - -
02/21/2019 11:51 Trace Moisture 34.3F - 24F - 15 - - - - 5 mhos 532 - None None - -
02/21/2019 11:43 Trace Moisture 33.8F - 24F - 10 - - - - 5 mhos 500 - None None - -
02/21/2019 11:41 Trace Moisture 33.6F - 24F - 15 - - - - 5 mhos 503 - None None - -
02/21/2019 11:31 Trace Moisture 33.3F - 24F - 15 - - - - 5 mhos 522 - None None - -
02/21/2019 11:28 Trace Moisture 32.7F - 24F - 15 - - - - 5 mhos 547 - None None - -
02/21/2019 11:21 Trace Moisture 32.5F - 24F - 20 - - - - 5 mhos 524 - None None - -
02/21/2019 11:13 Ice Watch 31.6F - 24F - 15 - - - - 6 mhos 571 - None None - -
02/21/2019 11:11 Ice Watch 31.6F - 24F - 15 - - - - 6 mhos 571 - None None - -
02/21/2019 11:01 Ice Watch 30.7F - 24F - 20 - - - - 6 mhos 704 - None None - -
02/21/2019 10:58 Ice Watch 30.4F - 24F - 20 - - - - 6 mhos 678 - None None - -
02/21/2019 10:51 Ice Watch 30.2F - 24F - 25 - - - - 7 mhos 760 - None None - -
Date/Time
(MST)
Sf
Temp Chem Water Layer Surface Precipitation
Sfc Pvt Sub Frz Factor Pct Dpth DpthThk IcePct Cond Salin FI Type Intens Accum Rate
02/21/2019 10:43 Ice Watch 29.3F - 24F - 25 - - - - 7 mhos 877 - None None - -
02/21/2019 10:41 Ice Watch 29.1F - 24F - 20 - - - - 6 mhos 717 - None None - -
02/21/2019 10:31 Dry 27.7F - 24F - - - - - - 8 mhos 1121 - None None - -
02/21/2019 10:28 Dry 27.0F - 24F - - - - - - 7 mhos 1032 - None None - -
02/21/2019 10:21 Ice Watch 26.8F - 24F - 25 - - - - 7 mhos 1044 - None None - -
02/21/2019 10:13 Ice Watch 25.7F - 24F - 30 - - - - 8 mhos 1303 - None None - -
02/21/2019 10:11 Dry 25.7F - 24F - - - - - - 9 mhos 1547 - None None - -
02/21/2019 10:01 Ice Watch 24.4F - 24F - 50 - - - - 10 mhos 1795 - None None - -
02/21/2019 09:58 Dry 23.9F - 24F - - - - - - 46 mhos 6651 - None None - -
02/21/2019 09:51 Dry 23.4F - 24F - - - - - - 26 mhos 4478 - None None - -
02/21/2019 09:42 Chemically Wet 22.3F - 24F 29F 70 10% - - 80% 14 mhos 2962 - None None - -
02/21/2019 09:41 Chemically Wet 21.7F - 24F 30F 60 8% - - 85% 11 mhos 2313 - None None - -
Change End Date:

Copyright © 1998-2015 Vaisala, Inc.
All Rights Reserved
Send comments about the data to:
SCAN Web ® is a registered trademark of Vaisala, Inc.
SCAN Web Version 6.0